Time;durP1;ratioP1;P1;durP2;ratioP2;P2;SDS_P1;SDS_P2;PMS_P1;PMS_P2;Temp;Humidity;BMP_temperature;BMP_pressure;BME280_temperature;BME280_humidity;BME280_pressure;Samples;Min_cycle;Max_cycle;Signal;HPM_P1;HPM_P2
2022/06/06 07:54:17;;;;;;;;;1.00;1.00;;;;;21.21;54.75;101503.34;5099677;27;45599;-83
2022/06/06 07:57:01;;;;;;;;;0.33;0.33;;;;;21.35;54.72;101491.34;5091806;27;45584;-81
2022/06/06 07:59:50;;;;;;;;;2.33;2.33;;;;;21.57;54.18;101492.97;5107500;27;45860;-81
2022/06/06 08:02:37;;;;;;;;;1.00;1.00;;;;;21.86;53.73;101488.66;5103872;27;45501;-81
2022/06/06 08:05:24;;;;;;;;;1.00;1.00;;;;;22.16;54.00;101494.13;5099708;27;46667;-83
2022/06/06 08:08:20;;;;;;;;;1.00;1.00;;;;;22.51;52.77;101490.84;5105448;27;45489;-83
2022/06/06 08:10:47;;;;;;;;;0.33;0.33;;;;;22.79;52.45;101492.81;5106093;27;45489;-80
2022/06/06 08:13:20;;;;;;;;;1.00;1.00;;;;;23.09;51.66;101490.06;5110167;27;45467;-81
2022/06/06 08:16:13;;;;;;;;;0.33;0.33;;;;;23.36;51.45;101485.69;5103797;27;45570;-84
2022/06/06 08:18:58;;;;;;;;;2.00;1.00;;;;;23.63;50.77;101490.25;5103880;27;45533;-79
2022/06/06 08:21:30;;;;;;;;;2.00;2.00;;;;;23.88;50.62;101486.97;5105279;27;45462;-80
2022/06/06 08:23:59;;;;;;;;;1.00;1.00;;;;;24.07;49.82;101484.13;5104184;27;45652;-78
2022/06/06 08:26:26;;;;;;;;;1.00;1.00;;;;;24.26;50.03;101478.72;5105677;27;45885;-80
2022/06/06 08:28:52;;;;;;;;;0.00;0.00;;;;;24.43;49.27;101486.00;5106899;27;45648;-77
2022/06/06 08:31:19;;;;;;;;;0.33;0.33;;;;;24.58;49.15;101482.72;5107188;27;45695;-77
2022/06/06 08:33:45;;;;;;;;;2.00;0.33;;;;;24.72;48.65;101484.88;5105040;27;45789;-77
2022/06/06 08:36:27;;;;;;;;;0.00;0.00;;;;;24.85;48.28;101479.03;5103399;27;45498;-76
2022/06/06 08:39:02;;;;;;;;;1.00;1.00;;;;;25.02;47.95;101481.88;5102987;27;45516;-77
2022/06/06 08:41:48;;;;;;;;;1.00;1.00;;;;;25.16;46.12;101472.28;5103524;27;45518;-77
2022/06/06 08:44:27;;;;;;;;;2.67;0.67;;;;;25.23;45.46;101459.75;5099988;27;45292;-77
2022/06/06 08:47:18;;;;;;;;;1.00;1.00;;;;;25.34;44.78;101477.59;5102204;27;47262;-77
2022/06/06 08:53:21;;;;;;;;;0.67;0.67;;;;;25.40;43.69;101470.69;5073788;27;45489;-78
2022/06/06 08:56:28;;;;;;;;;0.00;0.00;;;;;25.44;43.28;101476.63;5067940;27;45524;-77
2022/06/06 08:58:59;;;;;;;;;0.67;0.67;;;;;25.51;43.19;101485.84;5078249;27;46438;-77
2022/06/06 09:01:25;;;;;;;;;1.00;0.33;;;;;25.54;43.50;101477.34;5079962;27;46259;-76
2022/06/06 09:04:28;;;;;;;;;1.00;0.67;;;;;25.56;43.62;101475.38;5070364;27;45354;-78
2022/06/06 09:07:23;;;;;;;;;3.33;2.00;;;;;25.59;43.56;101483.16;5065959;27;45463;-76
2022/06/06 09:10:22;;;;;;;;;0.33;0.33;;;;;25.65;43.42;101476.22;5059360;28;46284;-77
2022/06/06 09:13:12;;;;;;;;;1.00;1.00;;;;;25.72;43.68;101479.13;5072392;28;45541;-77
2022/06/06 09:16:03;;;;;;;;;1.00;1.00;;;;;25.78;43.58;101484.75;5061476;28;45573;-80
2022/06/06 09:18:47;;;;;;;;;1.00;1.00;;;;;25.81;43.59;101472.72;5064612;27;45469;-79
2022/06/06 09:21:39;;;;;;;;;0.00;0.00;;;;;25.83;43.86;101472.53;5067640;27;46240;-78
2022/06/06 09:24:07;;;;;;;;;0.67;0.67;;;;;25.90;43.81;101466.28;4965263;28;47003;-78
2022/06/06 09:26:58;;;;;;;;;1.00;1.00;;;;;25.93;43.42;101467.81;4966555;28;48812;-78
2022/06/06 09:29:40;;;;;;;;;1.00;1.00;;;;;26.00;43.27;101473.44;4970866;28;45664;-78
2022/06/06 09:32:20;;;;;;;;;1.00;1.00;;;;;26.05;42.93;101468.34;4988711;28;45665;-79
2022/06/06 09:35:13;;;;;;;;;2.33;1.00;;;;;26.09;42.85;101469.69;4989023;28;45279;-78
2022/06/06 09:38:15;;;;;;;;;0.33;0.33;;;;;26.16;42.11;101480.75;4977414;28;45485;-78
2022/06/06 09:40:59;;;;;;;;;1.00;0.00;;;;;26.22;41.24;101471.91;4980953;28;45756;-76
2022/06/06 09:43:54;;;;;;;;;1.00;1.00;;;;;26.25;41.72;101471.63;4979114;28;45648;-79
2022/06/06 09:46:59;;;;;;;;;0.33;0.33;;;;;26.24;41.34;101478.03;4978911;28;46852;-79
2022/06/06 09:49:47;;;;;;;;;1.00;1.00;;;;;26.23;41.91;101470.88;4943733;28;45619;-80
2022/06/06 09:52:51;;;;;;;;;0.33;0.33;;;;;26.23;41.47;101475.50;4947392;28;45668;-79
2022/06/06 10:01:14;;;;;;;;;0.67;0.00;;;;;26.29;42.18;101467.50;4982040;28;45735;-78
2022/06/06 10:04:13;;;;;;;;;0.00;0.00;;;;;26.31;41.82;101462.75;4993928;28;45543;-78
2022/06/06 10:06:52;;;;;;;;;1.00;1.00;;;;;26.39;42.02;101463.78;5006816;28;45543;-79
2022/06/06 10:09:39;;;;;;;;;0.00;0.00;;;;;26.43;41.65;101468.72;4987513;28;45467;-79
2022/06/06 10:12:22;;;;;;;;;0.33;0.33;;;;;26.43;41.59;101468.72;5007448;28;45463;-76
2022/06/06 10:15:03;;;;;;;;;1.33;1.33;;;;;26.42;41.45;101471.59;5003469;28;45453;-77
2022/06/06 10:17:56;;;;;;;;;0.67;0.67;;;;;26.44;40.59;101469.53;5004880;28;46380;-77
2022/06/06 10:20:44;;;;;;;;;1.00;1.00;;;;;26.48;40.50;101470.91;5007062;28;45518;-77
2022/06/06 10:23:53;;;;;;;;;1.00;1.00;;;;;26.51;39.74;101480.59;5001058;28;45687;-77
2022/06/06 10:26:43;;;;;;;;;0.33;0.33;;;;;26.52;40.00;101480.44;5039017;27;50865;-75
2022/06/06 10:30:10;;;;;;;;;0.00;0.00;;;;;26.56;40.16;101481.81;5080012;27;45458;-74
2022/06/06 10:32:43;;;;;;;;;0.67;0.67;;;;;26.55;42.56;101485.56;5084958;27;45528;-75
2022/06/06 10:35:14;;;;;;;;;1.00;1.00;;;;;26.52;42.86;101483.16;5088729;27;45470;-75
2022/06/06 10:37:39;;;;;;;;;2.00;1.33;;;;;26.50;42.86;101484.34;5090386;27;45531;-74
2022/06/06 10:40:07;;;;;;;;;0.00;0.00;;;;;26.48;43.14;101478.25;5084751;27;46085;-75
2022/06/06 10:43:05;;;;;;;;;1.00;1.00;;;;;26.44;42.49;101469.53;5081755;27;45528;-75
2022/06/06 10:45:37;;;;;;;;;0.67;0.67;;;;;26.42;43.01;101474.31;5075994;27;45421;-75
2022/06/06 10:48:08;;;;;;;;;0.00;0.00;;;;;26.40;41.80;101479.09;5080856;27;45485;-75
2022/06/06 10:54:06;;;;;;;;;1.00;1.00;;;;;26.31;42.03;101476.38;5080228;27;45553;-75
2022/06/06 10:56:46;;;;;;;;;3.00;1.00;;;;;26.30;42.15;101471.09;5092419;27;45512;-76
2022/06/06 10:59:43;;;;;;;;;1.67;1.00;;;;;26.32;41.72;101458.16;5082760;27;45506;-77
2022/06/06 11:02:39;;;;;;;;;1.33;1.33;;;;;26.35;41.83;101459.72;5080084;27;46225;-76
2022/06/06 11:05:34;;;;;;;;;2.67;1.00;;;;;26.38;41.70;101453.91;5079619;27;45530;-76
2022/06/06 11:08:19;;;;;;;;;0.67;0.67;;;;;26.37;42.55;101452.22;5083624;27;45494;-77
2022/06/06 11:11:05;;;;;;;;;1.00;1.00;;;;;26.42;42.20;101453.41;5081761;27;45585;-76
2022/06/06 11:13:49;;;;;;;;;3.00;1.00;;;;;26.46;42.40;101461.22;5076692;27;45512;-76
2022/06/06 11:16:33;;;;;;;;;2.00;2.00;;;;;26.47;41.97;101460.19;5090205;27;46097;-75
2022/06/06 11:19:32;;;;;;;;;1.67;1.67;;;;;26.48;41.48;101454.59;5080216;27;47632;-76
2022/06/06 11:22:07;;;;;;;;;3.00;1.00;;;;;26.47;41.55;101454.75;5081764;27;45434;-77
2022/06/06 11:24:43;;;;;;;;;2.67;1.00;;;;;26.48;41.35;101461.91;5085502;27;45542;-76
2022/06/06 11:27:26;;;;;;;;;2.33;1.33;;;;;26.48;41.33;101457.31;5080050;27;45548;-76
2022/06/06 11:30:22;;;;;;;;;1.00;1.00;;;;;26.44;40.76;101462.25;5087151;27;45519;-76
2022/06/06 11:33:28;;;;;;;;;1.67;1.67;;;;;26.45;40.10;101454.94;5063596;28;46070;-76
2022/06/06 11:36:33;;;;;;;;;1.00;1.00;;;;;26.44;39.41;101451.34;4984592;28;46236;-76
2022/06/06 11:39:24;;;;;;;;;1.00;1.00;;;;;26.42;39.69;101458.00;4986376;28;45556;-76
2022/06/06 11:42:10;;;;;;;;;0.00;0.00;;;;;26.42;39.28;101458.00;4980863;28;45584;-76
2022/06/06 11:45:00;;;;;;;;;1.00;1.00;;;;;26.41;38.66;101467.19;4984913;28;55040;-76
2022/06/06 11:47:25;;;;;;;;;1.00;1.00;;;;;26.40;38.59;101460.06;4978447;28;46460;-76
2022/06/06 11:50:17;;;;;;;;;0.33;0.33;;;;;26.39;38.98;101453.75;4983763;28;45477;-76
2022/06/06 11:52:45;;;;;;;;;2.00;2.00;;;;;26.41;39.57;101445.41;4977744;28;45452;-76
2022/06/06 11:55:43;;;;;;;;;2.00;2.00;;;;;26.44;39.54;101459.53;4985940;28;46012;-77
2022/06/06 11:58:27;;;;;;;;;2.67;1.67;;;;;26.44;38.74;101451.34;4987889;28;46230;-76
2022/06/06 12:01:07;;;;;;;;;1.33;1.33;;;;;26.48;39.47;101453.75;4984209;28;45649;-75
2022/06/06 12:03:41;;;;;;;;;2.00;2.00;;;;;26.48;39.79;101453.75;4974937;28;46311;-77
2022/06/06 12:06:38;;;;;;;;;2.00;2.00;;;;;26.48;39.87;101449.13;4978537;28;46878;-77
2022/06/06 12:09:42;;;;;;;;;1.00;1.00;;;;;26.50;40.01;101449.84;4992169;28;45529;-76
2022/06/06 12:12:30;;;;;;;;;2.00;2.00;;;;;26.52;40.61;101450.50;5036533;27;45508;-75
2022/06/06 12:15:04;;;;;;;;;0.00;0.00;;;;;26.57;40.62;101439.94;5081105;27;45560;-76
2022/06/06 12:18:10;;;;;;;;;0.67;0.67;;;;;26.62;40.20;101446.75;5079245;27;45554;-76
2022/06/06 12:21:15;;;;;;;;;2.00;1.67;;;;;26.64;40.77;101440.09;5078187;27;46332;-76
2022/06/06 12:24:22;;;;;;;;;2.00;2.00;;;;;26.69;40.69;101442.31;5081708;27;45331;-76
2022/06/06 12:27:15;;;;;;;;;2.00;2.00;;;;;26.73;40.71;101429.22;5046827;28;45555;-75
2022/06/06 12:29:54;;;;;;;;;0.33;0.33;;;;;26.76;41.39;101431.59;5038723;28;45870;-75
2022/06/06 12:32:38;;;;;;;;;0.33;0.33;;;;;26.80;40.82;101430.19;5037387;28;47521;-75
2022/06/06 12:35:16;;;;;;;;;1.00;1.00;;;;;26.84;41.53;101423.38;5044970;28;46178;-75
2022/06/06 12:38:05;;;;;;;;;1.67;1.67;;;;;26.89;41.07;101426.41;5043610;28;46176;-77
2022/06/06 12:40:59;;;;;;;;;3.00;1.67;;;;;26.90;41.69;101422.69;5039299;28;45528;-75
2022/06/06 12:43:43;;;;;;;;;0.33;0.33;;;;;26.95;41.74;101427.63;5040550;28;45935;-76
2022/06/06 12:46:21;;;;;;;;;2.00;1.67;;;;;26.96;41.27;101416.56;5042391;28;48973;-75
2022/06/06 12:48:58;;;;;;;;;2.00;2.00;;;;;27.01;41.25;101420.66;5039398;28;45472;-75
2022/06/06 12:51:50;;;;;;;;;1.00;1.00;;;;;27.04;41.28;101423.00;5046277;28;45499;-76
2022/06/06 12:57:58;;;;;;;;;1.00;1.00;;;;;27.09;42.03;101410.56;5051678;28;45854;-76
2022/06/06 13:03:29;;;;;;;;;2.00;1.67;;;;;27.11;42.06;101402.22;5058561;27;45456;-75
2022/06/06 13:06:20;;;;;;;;;1.00;1.00;;;;;27.16;42.24;101412.56;5081038;27;45628;-75
2022/06/06 13:09:08;;;;;;;;;3.00;2.00;;;;;27.20;41.61;101401.16;5077402;27;45565;-78
2022/06/06 13:11:52;;;;;;;;;2.00;2.00;;;;;27.26;41.19;101405.03;5090715;27;45592;-78
2022/06/06 13:14:23;;;;;;;;;3.67;1.00;;;;;27.30;40.69;101397.38;5099019;27;45495;-79
2022/06/06 13:17:05;;;;;;;;;5.00;2.00;;;;;27.29;41.21;101396.50;5092329;27;45496;-78
2022/06/06 13:19:50;;;;;;;;;2.00;2.00;;;;;27.27;40.81;101400.44;5089644;27;45827;-76
2022/06/06 13:22:24;;;;;;;;;2.00;2.00;;;;;27.21;41.17;101407.44;5087612;27;45496;-75
2022/06/06 13:25:10;;;;;;;;;1.00;1.00;;;;;27.22;40.97;101403.72;5090276;27;45464;-76
2022/06/06 13:28:17;;;;;;;;;3.67;2.33;;;;;27.27;40.18;101400.44;5084422;27;45643;-75
2022/06/06 13:30:48;;;;;;;;;1.00;1.00;;;;;27.29;39.72;101385.59;5082436;27;45780;-75
2022/06/06 13:33:22;;;;;;;;;2.33;2.33;;;;;27.28;40.08;101391.22;5093669;27;45595;-75
2022/06/06 13:36:09;;;;;;;;;1.00;1.00;;;;;27.23;39.72;101392.59;5088190;27;45830;-76
2022/06/06 13:38:38;;;;;;;;;3.67;1.00;;;;;27.21;39.71;101381.03;5087667;27;45673;-77
2022/06/06 13:41:24;;;;;;;;;4.00;3.00;;;;;27.19;39.39;101385.84;5090915;27;45387;-76
2022/06/06 13:43:57;;;;;;;;;1.00;1.00;;;;;27.18;39.55;101394.19;5092549;27;45512;-77
2022/06/06 13:46:39;;;;;;;;;1.00;1.00;;;;;27.17;39.05;101387.00;5089538;27;45553;-80
2022/06/06 13:49:12;;;;;;;;;1.00;1.00;;;;;27.20;38.57;101379.34;5091505;27;46443;-78
2022/06/06 13:51:57;;;;;;;;;0.67;0.67;;;;;27.23;38.68;101381.69;5093577;27;45699;-78
2022/06/06 13:54:33;;;;;;;;;2.00;1.00;;;;;27.26;38.84;101385.13;5089237;27;45487;-78
2022/06/06 13:57:13;;;;;;;;;1.00;1.00;;;;;27.28;39.15;101385.78;5085884;27;45540;-78
2022/06/06 14:00:03;;;;;;;;;2.33;1.00;;;;;27.28;38.63;101399.41;5088674;27;45526;-79
2022/06/06 14:02:39;;;;;;;;;1.67;1.00;;;;;27.26;39.07;101380.50;5088770;27;45730;-76
2022/06/06 14:05:20;;;;;;;;;2.00;2.00;;;;;27.27;39.33;101393.13;5082228;27;45516;-78
2022/06/06 14:07:57;;;;;;;;;1.00;1.00;;;;;27.27;38.32;101387.66;5093680;27;45728;-79
2022/06/06 14:10:36;;;;;;;;;1.00;1.00;;;;;27.25;37.16;101384.25;5086053;27;46382;-84
2022/06/06 14:13:11;;;;;;;;;1.33;1.33;;;;;27.29;37.44;101391.06;5086977;27;46045;-84
2022/06/06 14:15:45;;;;;;;;;1.00;1.00;;;;;27.31;37.38;101393.59;5089421;27;45471;-78
2022/06/06 14:18:18;;;;;;;;;4.00;1.00;;;;;27.30;38.01;101383.75;5087717;27;45437;-80
2022/06/06 14:20:48;;;;;;;;;0.00;0.00;;;;;27.31;37.38;101389.00;5089725;27;45559;-78
2022/06/06 14:23:35;;;;;;;;;0.00;0.00;;;;;27.32;38.08;101387.13;5092990;27;45329;-78
2022/06/06 14:26:11;;;;;;;;;0.00;0.00;;;;;27.33;37.58;101388.81;5086746;27;45475;-81
2022/06/06 14:28:40;;;;;;;;;1.00;1.00;;;;;27.29;38.06;101371.97;5088990;27;45545;-84
2022/06/06 14:31:21;;;;;;;;;1.00;1.00;;;;;27.35;37.42;101373.16;5085724;27;47192;-84
2022/06/06 14:33:56;;;;;;;;;3.67;2.67;;;;;27.34;36.76;101376.91;5089657;27;45406;-86
2022/06/06 14:36:27;;;;;;;;;2.67;1.67;;;;;27.32;37.75;101365.31;5087232;27;45488;-79
2022/06/06 14:39:03;;;;;;;;;2.67;2.67;;;;;27.30;37.24;101370.09;5091807;27;45643;-79
2022/06/06 14:41:47;;;;;;;;;4.00;4.00;;;;;27.27;37.77;101370.47;5086298;27;45472;-79
2022/06/06 14:44:14;;;;;;;;;2.00;2.00;;;;;27.22;37.51;101369.13;5088475;27;45371;-79
2022/06/06 14:46:46;;;;;;;;;1.00;1.00;;;;;27.22;37.14;101368.28;5087923;27;45399;-79
2022/06/06 14:49:23;;;;;;;;;3.33;2.33;;;;;27.16;38.10;101355.34;5089293;27;45406;-80
2022/06/06 14:51:48;;;;;;;;;4.67;3.00;;;;;27.21;37.54;101381.03;5092035;27;45893;-79
2022/06/06 14:54:15;;;;;;;;;2.00;1.00;;;;;27.20;37.49;101383.94;5087118;27;45492;-80
2022/06/06 14:56:52;;;;;;;;;2.67;2.67;;;;;27.17;37.55;101371.53;5087981;27;45453;-77
2022/06/06 14:59:46;;;;;;;;;2.00;1.33;;;;;27.05;37.53;101351.16;5086873;27;45667;-79
2022/06/06 15:02:24;;;;;;;;;1.00;1.00;;;;;27.15;37.60;101372.72;5083048;27;45788;-80
2022/06/06 15:05:14;;;;;;;;;4.00;1.33;;;;;27.15;37.07;101378.19;5075608;27;45564;-77
2022/06/06 15:07:53;;;;;;;;;1.00;1.00;;;;;27.21;36.20;101370.16;5073096;27;48648;-78
2022/06/06 15:10:37;;;;;;;;;0.00;0.00;;;;;27.22;36.58;101366.38;5075170;27;48128;-79
2022/06/06 15:13:03;;;;;;;;;5.33;2.00;;;;;27.25;36.43;101365.19;5088986;27;46335;-81
2022/06/06 15:15:31;;;;;;;;;2.67;1.67;;;;;27.27;37.21;101370.47;5089267;27;45602;-79
2022/06/06 15:17:57;;;;;;;;;0.33;0.33;;;;;27.27;36.61;101370.47;5071186;27;45644;-80
2022/06/06 15:20:28;;;;;;;;;1.33;0.00;;;;;27.25;37.25;101370.63;5066558;27;47062;-81
2022/06/06 15:22:58;;;;;;;;;1.00;0.67;;;;;27.21;36.63;101358.38;5066661;27;55359;-83
2022/06/06 15:25:32;;;;;;;;;1.00;1.00;;;;;27.22;36.38;101360.09;5066924;27;46037;-80
2022/06/06 15:28:14;;;;;;;;;1.67;1.67;;;;;27.18;37.26;101351.41;5068065;27;46225;-82
2022/06/06 15:30:48;;;;;;;;;2.00;2.00;;;;;27.17;36.75;101357.03;5069733;27;45772;-80
2022/06/06 15:33:32;;;;;;;;;3.33;1.00;;;;;27.15;37.11;101356.38;5067505;27;46912;-79
2022/06/06 15:36:08;;;;;;;;;1.67;1.33;;;;;27.19;37.52;101357.72;5075834;27;45519;-79
2022/06/06 15:38:50;;;;;;;;;2.33;2.00;;;;;27.22;37.96;101362.84;5065398;27;45640;-77
2022/06/06 15:41:24;;;;;;;;;2.33;2.33;;;;;27.27;38.25;101365.00;5065949;27;45856;-77
2022/06/06 15:44:20;;;;;;;;;3.00;0.33;;;;;27.28;38.25;101364.84;5075760;27;48417;-75
2022/06/06 15:46:46;;;;;;;;;3.00;2.00;;;;;27.30;37.52;101368.22;5086056;27;45684;-75
2022/06/06 15:49:45;;;;;;;;;3.00;2.67;;;;;27.30;37.34;101372.84;5090712;27;45342;-79
2022/06/06 15:52:35;;;;;;;;;4.00;3.00;;;;;27.30;37.29;101370.94;5086350;27;46582;-79
2022/06/06 15:55:20;;;;;;;;;1.00;1.00;;;;;27.32;37.36;101370.75;5083280;27;46341;-81
2022/06/06 15:58:14;;;;;;;;;2.00;2.00;;;;;27.32;37.56;101366.19;5086422;27;45366;-79
2022/06/06 16:01:04;;;;;;;;;4.67;3.00;;;;;27.29;37.96;101357.50;5085977;27;45383;-78
2022/06/06 16:03:41;;;;;;;;;5.00;2.33;;;;;27.23;37.66;101353.63;5088444;27;52512;-79
2022/06/06 16:06:08;;;;;;;;;6.33;4.00;;;;;27.23;37.79;101357.19;5085761;27;46867;-75
2022/06/06 16:08:45;;;;;;;;;5.00;4.00;;;;;27.23;37.95;101357.19;5075428;27;45468;-76
2022/06/06 16:11:30;;;;;;;;;1.67;1.67;;;;;27.24;38.17;101358.03;5081136;27;45356;-75
2022/06/06 16:14:17;;;;;;;;;1.33;1.33;;;;;27.24;38.20;101355.31;5087218;27;45461;-77
2022/06/06 16:16:49;;;;;;;;;1.00;1.00;;;;;27.26;38.58;101355.97;5085811;27;45789;-75
2022/06/06 16:19:28;;;;;;;;;6.00;1.33;;;;;27.27;38.50;101346.78;5090988;27;45421;-76
2022/06/06 16:22:12;;;;;;;;;2.67;2.00;;;;;27.30;37.75;101345.59;5093495;27;45918;-79
2022/06/06 16:24:46;;;;;;;;;2.00;2.00;;;;;27.35;37.84;101346.72;5096440;27;45592;-77
2022/06/06 16:27:26;;;;;;;;;3.00;2.00;;;;;27.38;37.38;101347.41;5087444;27;45770;-79
2022/06/06 16:30:11;;;;;;;;;6.00;4.33;;;;;27.32;37.74;101333.47;5086866;27;45486;-80
2022/06/06 16:32:42;;;;;;;;;2.67;2.00;;;;;27.35;39.32;101344.00;5091742;27;45539;-77
2022/06/06 16:35:26;;;;;;;;;3.33;2.00;;;;;27.31;39.39;101341.81;5081813;27;45518;-78
2022/06/06 16:38:03;;;;;;;;;4.33;2.33;;;;;27.32;39.36;101336.19;5081159;27;46284;-81
2022/06/06 16:40:37;;;;;;;;;5.00;4.33;;;;;27.30;40.82;101340.97;5074320;27;45983;-85
2022/06/06 16:49:44;;;;;;;;;2.00;1.67;;;;;27.16;41.05;101336.28;5087407;27;46084;-79
2022/06/06 16:52:40;;;;;;;;;1.00;1.00;;;;;27.10;41.67;101332.41;5089685;27;45567;-77
2022/06/06 16:55:11;;;;;;;;;1.00;1.00;;;;;27.05;41.61;101332.94;5087101;27;45454;-77
2022/06/06 16:57:36;;;;;;;;;3.67;2.00;;;;;27.05;40.50;101323.94;5075307;27;45478;-74
2022/06/06 17:00:20;;;;;;;;;3.00;2.00;;;;;27.05;40.97;101332.09;5090261;27;45494;-75
2022/06/06 17:02:58;;;;;;;;;3.00;3.00;;;;;27.05;39.98;101330.22;5086993;27;45595;-76
2022/06/06 17:08:46;;;;;;;;;3.67;2.00;;;;;27.10;40.61;101329.69;5083308;27;46264;-76
2022/06/06 17:11:36;;;;;;;;;4.00;2.67;;;;;27.10;39.76;101330.53;5085771;27;46852;-76
2022/06/06 17:14:29;;;;;;;;;4.00;3.00;;;;;27.16;39.58;101334.41;5097127;27;45383;-76
2022/06/06 17:16:58;;;;;;;;;2.67;2.67;;;;;27.15;39.53;101332.72;5077077;27;50570;-75
2022/06/06 17:19:35;;;;;;;;;2.00;2.00;;;;;27.19;39.98;101334.06;5087348;27;45484;-76
2022/06/06 17:22:07;;;;;;;;;4.67;4.00;;;;;27.21;39.86;101331.13;5090326;27;45785;-76
2022/06/06 17:24:45;;;;;;;;;2.67;2.67;;;;;27.25;39.84;101332.47;5087879;27;45387;-76
2022/06/06 17:27:38;;;;;;;;;1.33;1.33;;;;;27.26;39.20;101331.44;5078785;27;46022;-76
2022/06/06 17:30:25;;;;;;;;;2.67;1.33;;;;;27.23;39.26;101335.38;5070540;27;45520;-76
2022/06/06 17:32:58;;;;;;;;;3.33;3.33;;;;;27.23;39.65;101329.94;5066389;27;47601;-78
2022/06/06 17:35:37;;;;;;;;;4.00;2.00;;;;;27.18;39.70;101337.78;5068607;27;46115;-77
2022/06/06 17:38:17;;;;;;;;;4.00;2.33;;;;;27.17;39.86;101346.13;5086097;27;45584;-77
2022/06/06 17:40:45;;;;;;;;;4.00;3.00;;;;;27.15;39.90;101337.31;5084709;27;45519;-78
2022/06/06 17:43:15;;;;;;;;;1.33;1.00;;;;;27.14;39.37;101341.91;5092250;27;46097;-74
2022/06/06 17:46:03;;;;;;;;;5.33;4.33;;;;;27.12;39.43;101343.09;5086062;27;45561;-76
2022/06/06 17:48:46;;;;;;;;;2.00;2.00;;;;;27.09;39.44;101336.13;5090506;27;45438;-76
2022/06/06 17:51:20;;;;;;;;;2.67;2.00;;;;;27.08;40.05;101342.63;5086556;27;45358;-78
2022/06/06 17:53:57;;;;;;;;;5.67;3.67;;;;;27.04;40.23;101331.25;5086378;27;45799;-77
2022/06/06 17:56:33;;;;;;;;;2.00;2.00;;;;;27.02;40.07;101341.44;5089481;27;45771;-78
2022/06/06 17:59:17;;;;;;;;;2.33;2.33;;;;;27.02;40.31;101341.44;5101530;27;45607;-79
2022/06/06 18:02:21;;;;;;;;;4.00;2.00;;;;;27.01;40.28;101342.47;5066431;27;45728;-77
2022/06/06 18:05:08;;;;;;;;;2.00;2.00;;;;;27.00;40.30;101331.75;5036212;27;45500;-77
2022/06/06 18:07:46;;;;;;;;;2.67;2.33;;;;;26.99;40.50;101333.66;5034932;27;45734;-78
2022/06/06 18:10:20;;;;;;;;;1.33;1.33;;;;;26.99;39.65;101324.63;5044927;27;45808;-76
2022/06/06 18:13:19;;;;;;;;;3.67;2.67;;;;;26.95;40.60;101313.25;5069627;27;45514;-75
2022/06/06 18:16:07;;;;;;;;;1.00;1.00;;;;;27.02;39.88;101322.38;5055906;27;46557;-76
2022/06/06 18:18:43;;;;;;;;;2.00;2.00;;;;;27.01;40.46;101317.97;5036886;27;46911;-75
2022/06/06 18:21:18;;;;;;;;;4.00;2.00;;;;;26.94;40.41;101301.50;5035176;28;45691;-76
2022/06/06 18:24:12;;;;;;;;;4.67;3.67;;;;;26.95;39.96;101307.78;5033370;27;46623;-75
2022/06/06 18:27:05;;;;;;;;;2.00;2.00;;;;;26.97;39.86;101313.91;5033721;28;46919;-75
2022/06/06 18:29:39;;;;;;;;;2.00;2.00;;;;;26.95;40.38;101313.25;5034016;27;45701;-75
2022/06/06 18:32:17;;;;;;;;;1.00;1.00;;;;;26.97;39.96;101313.91;5064500;28;45659;-75
2022/06/06 18:35:01;;;;;;;;;1.00;1.00;;;;;26.95;39.93;101314.09;5061005;27;45527;-75
2022/06/06 18:37:35;;;;;;;;;1.00;1.00;;;;;26.92;40.15;101311.69;5069011;28;46047;-75
2022/06/06 18:40:31;;;;;;;;;2.00;2.00;;;;;26.91;40.61;101314.59;5064849;27;45809;-75
2022/06/06 18:42:57;;;;;;;;;1.00;1.00;;;;;26.92;40.10;101310.84;5080558;27;45460;-75
2022/06/06 18:45:28;;;;;;;;;1.67;1.00;;;;;26.92;40.00;101313.56;5090583;27;52601;-75
2022/06/06 18:47:57;;;;;;;;;3.00;2.00;;;;;26.92;40.19;101319.88;5082121;27;48046;-75
2022/06/06 18:50:38;;;;;;;;;4.00;2.00;;;;;26.92;40.46;101317.13;5086940;27;45433;-75
2022/06/06 18:53:12;;;;;;;;;4.67;2.00;;;;;26.90;40.50;101313.75;5077369;27;45599;-77
2022/06/06 18:55:43;;;;;;;;;2.33;1.00;;;;;26.88;40.56;101314.94;5089761;27;45596;-77
2022/06/06 18:58:11;;;;;;;;;0.00;0.00;;;;;26.90;40.15;101321.06;5089516;27;45827;-79
2022/06/06 19:00:37;;;;;;;;;1.33;1.33;;;;;26.89;40.54;101319.38;5091605;27;45513;-78
2022/06/06 19:03:04;;;;;;;;;4.33;3.33;;;;;26.89;40.38;101325.66;5089693;27;45485;-79
2022/06/06 19:05:38;;;;;;;;;1.00;1.00;;;;;26.92;40.11;101325.31;5085501;27;45306;-77
2022/06/06 19:08:12;;;;;;;;;1.00;1.00;;;;;26.90;40.41;101330.09;5086667;27;46976;-77
2022/06/06 19:11:05;;;;;;;;;1.00;1.00;;;;;26.89;40.99;101327.53;5107960;27;45449;-76
2022/06/06 19:13:31;;;;;;;;;1.00;1.00;;;;;26.88;41.33;101328.53;5088841;27;45651;-79
2022/06/06 19:16:12;;;;;;;;;2.00;2.00;;;;;26.90;41.20;101321.94;5090934;27;45367;-79
2022/06/06 19:18:39;;;;;;;;;1.00;1.00;;;;;26.92;41.20;101321.72;5088937;27;45971;-76
2022/06/06 19:21:11;;;;;;;;;1.33;1.00;;;;;26.93;41.23;101313.41;5090351;27;45493;-77
2022/06/06 19:23:48;;;;;;;;;1.00;1.00;;;;;26.94;41.73;101315.09;5088667;27;45757;-77
2022/06/06 19:26:34;;;;;;;;;4.00;2.00;;;;;26.98;41.75;101317.47;5088081;27;45536;-77
2022/06/06 19:29:06;;;;;;;;;1.33;1.33;;;;;27.02;41.43;101321.56;5091481;27;47333;-79
2022/06/06 19:31:38;;;;;;;;;1.67;1.67;;;;;27.05;41.60;101321.22;5084110;27;46533;-78
2022/06/06 19:34:10;;;;;;;;;0.33;0.33;;;;;27.08;41.29;101323.56;5090935;27;45458;-79
2022/06/06 19:36:39;;;;;;;;;2.00;2.00;;;;;27.13;42.12;101317.59;5090789;27;45563;-78
2022/06/06 19:39:15;;;;;;;;;1.00;1.00;;;;;27.15;41.85;101315.50;5085075;27;45712;-77
2022/06/06 19:41:42;;;;;;;;;1.00;1.00;;;;;27.15;42.08;101313.66;5090181;27;45397;-77
2022/06/06 19:44:14;;;;;;;;;0.00;0.00;;;;;27.18;41.95;101323.34;5102623;27;45443;-77
2022/06/06 19:46:42;;;;;;;;;1.00;1.00;;;;;27.15;42.33;101316.38;5077217;27;45611;-76
2022/06/06 19:49:15;;;;;;;;;1.67;1.67;;;;;27.21;41.65;101322.97;5089420;27;45802;-75
2022/06/06 19:51:43;;;;;;;;;0.00;0.00;;;;;27.22;42.21;101330.13;5089391;27;45673;-76
2022/06/06 19:54:26;;;;;;;;;2.00;2.00;;;;;27.26;41.97;101327.88;5086271;27;45540;-77
2022/06/06 19:57:11;;;;;;;;;2.00;2.00;;;;;27.29;41.52;101322.06;5086063;27;45493;-78
2022/06/06 19:59:39;;;;;;;;;0.67;0.67;;;;;27.32;42.01;101319.84;5085885;27;45386;-76
2022/06/06 20:02:15;;;;;;;;;1.00;1.00;;;;;27.36;42.31;101325.78;5081256;27;45615;-76
2022/06/06 20:04:42;;;;;;;;;0.00;0.00;;;;;27.38;41.85;101329.16;5080584;27;45597;-79
2022/06/06 20:07:29;;;;;;;;;1.00;1.00;;;;;27.40;41.86;101335.28;5086553;27;45500;-80
2022/06/06 20:10:20;;;;;;;;;0.67;0.67;;;;;27.41;42.40;101333.41;5093762;27;46051;-80
2022/06/06 20:12:49;;;;;;;;;1.67;1.67;;;;;27.39;42.58;101332.75;5093554;27;45852;-79
